sensor_id;sensor_type;location;lat;lon;timestamp;temperature;humidity
11426;DHT22;5769;47.998;7.788;2023-01-01T00:01:06;18.50;71.40
11426;DHT22;5769;47.998;7.788;2023-01-01T00:03:34;18.50;71.40
11426;DHT22;5769;47.998;7.788;2023-01-01T00:06:04;18.50;71.40
11426;DHT22;5769;47.998;7.788;2023-01-01T00:08:32;18.40;71.40
11426;DHT22;5769;47.998;7.788;2023-01-01T00:11:00;18.40;71.40
11426;DHT22;5769;47.998;7.788;2023-01-01T00:13:27;18.50;71.40
11426;DHT22;5769;47.998;7.788;2023-01-01T00:15:53;18.40;71.40
11426;DHT22;5769;47.998;7.788;2023-01-01T00:18:20;18.50;71.40
11426;DHT22;5769;47.998;7.788;2023-01-01T00:20:48;18.50;71.40
11426;DHT22;5769;47.998;7.788;2023-01-01T00:23:15;18.40;71.40
11426;DHT22;5769;47.998;7.788;2023-01-01T00:25:41;18.40;72.00
11426;DHT22;5769;47.998;7.788;2023-01-01T00:28:08;18.50;72.20
11426;DHT22;5769;47.998;7.788;2023-01-01T00:30:38;18.40;71.50
11426;DHT22;5769;47.998;7.788;2023-01-01T00:33:05;18.40;71.40
11426;DHT22;5769;47.998;7.788;2023-01-01T00:35:32;18.40;71.40
11426;DHT22;5769;47.998;7.788;2023-01-01T00:38:00;18.40;71.40
11426;DHT22;5769;47.998;7.788;2023-01-01T00:40:27;18.40;71.40
11426;DHT22;5769;47.998;7.788;2023-01-01T00:42:54;18.50;71.60
11426;DHT22;5769;47.998;7.788;2023-01-01T00:45:21;18.40;71.40
11426;DHT22;5769;47.998;7.788;2023-01-01T00:47:48;18.50;71.40
11426;DHT22;5769;47.998;7.788;2023-01-01T00:50:15;18.40;71.40
11426;DHT22;5769;47.998;7.788;2023-01-01T00:52:41;18.40;71.40
11426;DHT22;5769;47.998;7.788;2023-01-01T00:55:10;18.40;71.40
11426;DHT22;5769;47.998;7.788;2023-01-01T00:57:37;18.40;71.50
11426;DHT22;5769;47.998;7.788;2023-01-01T01:00:05;18.40;71.40
11426;DHT22;5769;47.998;7.788;2023-01-01T01:02:32;18.50;71.50
11426;DHT22;5769;47.998;7.788;2023-01-01T01:04:58;18.40;71.50
11426;DHT22;5769;47.998;7.788;2023-01-01T01:07:25;18.50;71.70
11426;DHT22;5769;47.998;7.788;2023-01-01T01:09:52;18.40;71.70
11426;DHT22;5769;47.998;7.788;2023-01-01T01:12:20;18.50;71.40
11426;DHT22;5769;47.998;7.788;2023-01-01T01:14:47;18.50;71.50
11426;DHT22;5769;47.998;7.788;2023-01-01T01:17:13;18.40;71.60
11426;DHT22;5769;47.998;7.788;2023-01-01T01:19:40;18.40;71.50
11426;DHT22;5769;47.998;7.788;2023-01-01T01:22:06;18.50;71.70
11426;DHT22;5769;47.998;7.788;2023-01-01T01:24:33;18.40;71.80
11426;DHT22;5769;47.998;7.788;2023-01-01T01:27:00;18.40;71.60
11426;DHT22;5769;47.998;7.788;2023-01-01T01:29:28;18.50;71.70
11426;DHT22;5769;47.998;7.788;2023-01-01T01:31:54;18.40;71.70
11426;DHT22;5769;47.998;7.788;2023-01-01T01:34:21;18.40;71.70
11426;DHT22;5769;47.998;7.788;2023-01-01T01:36:48;18.40;71.60
11426;DHT22;5769;47.998;7.788;2023-01-01T01:39:17;18.50;71.60
11426;DHT22;5769;47.998;7.788;2023-01-01T01:41:44;18.40;71.80
11426;DHT22;5769;47.998;7.788;2023-01-01T01:44:50;18.40;71.80
11426;DHT22;5769;47.998;7.788;2023-01-01T01:47:21;18.40;71.80
11426;DHT22;5769;47.998;7.788;2023-01-01T01:49:51;18.40;71.80
11426;DHT22;5769;47.998;7.788;2023-01-01T01:52:19;18.40;71.70
11426;DHT22;5769;47.998;7.788;2023-01-01T01:54:46;18.40;71.70
11426;DHT22;5769;47.998;7.788;2023-01-01T01:57:13;18.40;71.80
11426;DHT22;5769;47.998;7.788;2023-01-01T01:59:43;18.40;71.70
11426;DHT22;5769;47.998;7.788;2023-01-01T02:02:19;18.40;71.70
11426;DHT22;5769;47.998;7.788;2023-01-01T02:04:48;18.40;71.90
11426;DHT22;5769;47.998;7.788;2023-01-01T02:07:16;18.40;72.00
11426;DHT22;5769;47.998;7.788;2023-01-01T02:09:43;18.40;71.70
11426;DHT22;5769;47.998;7.788;2023-01-01T02:12:10;18.40;71.90
11426;DHT22;5769;47.998;7.788;2023-01-01T02:14:36;18.50;71.90
11426;DHT22;5769;47.998;7.788;2023-01-01T02:17:08;18.40;71.90
11426;DHT22;5769;47.998;7.788;2023-01-01T02:19:43;18.40;72.00
11426;DHT22;5769;47.998;7.788;2023-01-01T02:22:14;18.40;71.90
11426;DHT22;5769;47.998;7.788;2023-01-01T02:25:03;18.40;71.90
11426;DHT22;5769;47.998;7.788;2023-01-01T02:27:37;18.40;71.80
11426;DHT22;5769;47.998;7.788;2023-01-01T02:30:11;18.40;71.70
11426;DHT22;5769;47.998;7.788;2023-01-01T02:32:41;18.40;72.10
11426;DHT22;5769;47.998;7.788;2023-01-01T02:35:13;18.50;72.20
11426;DHT22;5769;47.998;7.788;2023-01-01T02:38:04;18.40;72.10
11426;DHT22;5769;47.998;7.788;2023-01-01T02:40:34;18.40;72.00
11426;DHT22;5769;47.998;7.788;2023-01-01T02:43:02;18.40;72.00
11426;DHT22;5769;47.998;7.788;2023-01-01T02:45:32;18.40;71.80
11426;DHT22;5769;47.998;7.788;2023-01-01T02:48:02;18.50;72.00
11426;DHT22;5769;47.998;7.788;2023-01-01T02:50:29;18.40;71.90
11426;DHT22;5769;47.998;7.788;2023-01-01T02:53:11;18.40;72.00
11426;DHT22;5769;47.998;7.788;2023-01-01T02:55:53;18.40;71.90
11426;DHT22;5769;47.998;7.788;2023-01-01T02:58:27;18.40;72.00
11426;DHT22;5769;47.998;7.788;2023-01-01T03:01:20;18.40;72.10
11426;DHT22;5769;47.998;7.788;2023-01-01T03:03:58;18.50;72.00
11426;DHT22;5769;47.998;7.788;2023-01-01T03:06:33;18.40;71.90
11426;DHT22;5769;47.998;7.788;2023-01-01T03:09:10;18.40;71.90
11426;DHT22;5769;47.998;7.788;2023-01-01T03:11:45;18.40;71.90
11426;DHT22;5769;47.998;7.788;2023-01-01T03:14:18;18.40;72.00
11426;DHT22;5769;47.998;7.788;2023-01-01T03:16:50;18.50;72.00
11426;DHT22;5769;47.998;7.788;2023-01-01T03:19:20;18.50;72.10
11426;DHT22;5769;47.998;7.788;2023-01-01T03:21:50;18.40;71.90
11426;DHT22;5769;47.998;7.788;2023-01-01T03:24:23;18.40;72.00
11426;DHT22;5769;47.998;7.788;2023-01-01T03:26:54;18.40;72.00
11426;DHT22;5769;47.998;7.788;2023-01-01T03:29:23;18.40;72.00
11426;DHT22;5769;47.998;7.788;2023-01-01T03:31:53;18.40;72.10
11426;DHT22;5769;47.998;7.788;2023-01-01T03:34:24;18.50;71.90
11426;DHT22;5769;47.998;7.788;2023-01-01T03:36:56;18.40;72.00
11426;DHT22;5769;47.998;7.788;2023-01-01T03:39:28;18.40;71.90
11426;DHT22;5769;47.998;7.788;2023-01-01T03:42:03;18.40;72.00
11426;DHT22;5769;47.998;7.788;2023-01-01T03:44:37;18.40;72.70
11426;DHT22;5769;47.998;7.788;2023-01-01T03:47:08;18.40;71.90
11426;DHT22;5769;47.998;7.788;2023-01-01T03:49:34;18.40;72.00
11426;DHT22;5769;47.998;7.788;2023-01-01T03:52:19;18.50;72.10
11426;DHT22;5769;47.998;7.788;2023-01-01T03:54:51;18.40;72.00
11426;DHT22;5769;47.998;7.788;2023-01-01T03:57:22;18.40;72.00
11426;DHT22;5769;47.998;7.788;2023-01-01T03:59:55;18.40;72.00
11426;DHT22;5769;47.998;7.788;2023-01-01T04:02:27;18.40;71.90
11426;DHT22;5769;47.998;7.788;2023-01-01T04:04:58;18.40;72.10
11426;DHT22;5769;47.998;7.788;2023-01-01T04:07:28;18.40;72.00
11426;DHT22;5769;47.998;7.788;2023-01-01T04:09:56;18.40;72.10
11426;DHT22;5769;47.998;7.788;2023-01-01T04:12:25;18.50;72.20
11426;DHT22;5769;47.998;7.788;2023-01-01T04:14:53;18.50;72.20
11426;DHT22;5769;47.998;7.788;2023-01-01T04:17:19;18.40;72.10
11426;DHT22;5769;47.998;7.788;2023-01-01T04:19:47;18.40;72.10
11426;DHT22;5769;47.998;7.788;2023-01-01T04:22:14;18.40;72.10
11426;DHT22;5769;47.998;7.788;2023-01-01T04:24:41;18.40;72.30
11426;DHT22;5769;47.998;7.788;2023-01-01T04:27:08;18.40;72.10
11426;DHT22;5769;47.998;7.788;2023-01-01T04:29:34;18.50;72.10
11426;DHT22;5769;47.998;7.788;2023-01-01T04:32:03;18.40;72.10
11426;DHT22;5769;47.998;7.788;2023-01-01T04:34:29;18.40;72.10
11426;DHT22;5769;47.998;7.788;2023-01-01T04:36:57;18.40;72.10
11426;DHT22;5769;47.998;7.788;2023-01-01T04:39:24;18.40;72.10
11426;DHT22;5769;47.998;7.788;2023-01-01T04:41:50;18.40;72.10
11426;DHT22;5769;47.998;7.788;2023-01-01T04:44:17;18.40;72.10
11426;DHT22;5769;47.998;7.788;2023-01-01T04:46:44;18.40;72.10
11426;DHT22;5769;47.998;7.788;2023-01-01T04:49:11;18.50;72.20
11426;DHT22;5769;47.998;7.788;2023-01-01T04:51:37;18.40;72.10
11426;DHT22;5769;47.998;7.788;2023-01-01T04:54:05;18.40;72.20
11426;DHT22;5769;47.998;7.788;2023-01-01T04:56:32;18.40;72.10
11426;DHT22;5769;47.998;7.788;2023-01-01T04:58:59;18.40;72.20
11426;DHT22;5769;47.998;7.788;2023-01-01T05:01:27;18.50;72.20
11426;DHT22;5769;47.998;7.788;2023-01-01T05:03:54;18.40;72.20
11426;DHT22;5769;47.998;7.788;2023-01-01T05:06:22;18.40;72.10
11426;DHT22;5769;47.998;7.788;2023-01-01T05:08:51;18.40;72.20
11426;DHT22;5769;47.998;7.788;2023-01-01T05:11:22;18.40;72.10
11426;DHT22;5769;47.998;7.788;2023-01-01T05:13:51;18.40;72.20
11426;DHT22;5769;47.998;7.788;2023-01-01T05:16:19;18.40;72.10
11426;DHT22;5769;47.998;7.788;2023-01-01T05:18:47;18.40;72.10
11426;DHT22;5769;47.998;7.788;2023-01-01T05:21:15;18.40;72.30
11426;DHT22;5769;47.998;7.788;2023-01-01T05:23:42;18.40;72.10
11426;DHT22;5769;47.998;7.788;2023-01-01T05:26:10;18.40;72.10
11426;DHT22;5769;47.998;7.788;2023-01-01T05:28:39;18.40;72.10
11426;DHT22;5769;47.998;7.788;2023-01-01T05:31:07;18.40;72.10
11426;DHT22;5769;47.998;7.788;2023-01-01T05:33:34;18.40;72.00
11426;DHT22;5769;47.998;7.788;2023-01-01T05:36:01;18.40;72.20
11426;DHT22;5769;47.998;7.788;2023-01-01T05:38:28;18.40;72.20
11426;DHT22;5769;47.998;7.788;2023-01-01T05:40:55;18.40;72.10
11426;DHT22;5769;47.998;7.788;2023-01-01T05:43:22;18.40;72.90
11426;DHT22;5769;47.998;7.788;2023-01-01T05:45:58;18.40;72.10
11426;DHT22;5769;47.998;7.788;2023-01-01T05:48:25;18.40;72.10
11426;DHT22;5769;47.998;7.788;2023-01-01T05:50:51;18.50;72.00
11426;DHT22;5769;47.998;7.788;2023-01-01T05:53:18;18.40;72.20
11426;DHT22;5769;47.998;7.788;2023-01-01T05:55:51;18.40;72.10
11426;DHT22;5769;47.998;7.788;2023-01-01T05:58:18;18.40;72.20
11426;DHT22;5769;47.998;7.788;2023-01-01T06:00:44;18.40;72.10
11426;DHT22;5769;47.998;7.788;2023-01-01T06:03:12;18.40;72.10
11426;DHT22;5769;47.998;7.788;2023-01-01T06:05:39;18.40;72.20
11426;DHT22;5769;47.998;7.788;2023-01-01T06:08:06;18.40;72.10
11426;DHT22;5769;47.998;7.788;2023-01-01T06:10:32;18.40;72.20
11426;DHT22;5769;47.998;7.788;2023-01-01T06:12:59;18.40;72.10
11426;DHT22;5769;47.998;7.788;2023-01-01T06:15:26;18.40;71.90
11426;DHT22;5769;47.998;7.788;2023-01-01T06:17:53;18.40;72.10
11426;DHT22;5769;47.998;7.788;2023-01-01T06:20:21;18.40;72.00
11426;DHT22;5769;47.998;7.788;2023-01-01T06:22:47;18.40;72.10
11426;DHT22;5769;47.998;7.788;2023-01-01T06:25:14;18.40;71.90
11426;DHT22;5769;47.998;7.788;2023-01-01T06:27:41;18.50;72.20
11426;DHT22;5769;47.998;7.788;2023-01-01T06:30:08;18.40;72.10
11426;DHT22;5769;47.998;7.788;2023-01-01T06:32:35;18.40;72.20
11426;DHT22;5769;47.998;7.788;2023-01-01T06:35:02;18.40;72.10
11426;DHT22;5769;47.998;7.788;2023-01-01T06:37:30;18.40;72.10
11426;DHT22;5769;47.998;7.788;2023-01-01T06:39:56;18.40;71.90
11426;DHT22;5769;47.998;7.788;2023-01-01T06:42:23;18.40;72.10
11426;DHT22;5769;47.998;7.788;2023-01-01T06:44:49;18.40;72.10
11426;DHT22;5769;47.998;7.788;2023-01-01T06:47:16;18.40;72.10
11426;DHT22;5769;47.998;7.788;2023-01-01T06:49:43;18.40;72.10
11426;DHT22;5769;47.998;7.788;2023-01-01T06:52:09;18.40;72.30
11426;DHT22;5769;47.998;7.788;2023-01-01T06:54:37;18.40;72.30
11426;DHT22;5769;47.998;7.788;2023-01-01T06:57:04;18.40;72.20
11426;DHT22;5769;47.998;7.788;2023-01-01T06:59:30;18.40;72.20
11426;DHT22;5769;47.998;7.788;2023-01-01T07:01:57;18.40;72.10
11426;DHT22;5769;47.998;7.788;2023-01-01T07:04:24;18.40;72.40
11426;DHT22;5769;47.998;7.788;2023-01-01T07:06:50;18.40;72.40
11426;DHT22;5769;47.998;7.788;2023-01-01T07:09:17;18.40;72.30
11426;DHT22;5769;47.998;7.788;2023-01-01T07:11:45;18.40;72.30
11426;DHT22;5769;47.998;7.788;2023-01-01T07:14:11;18.40;72.40
11426;DHT22;5769;47.998;7.788;2023-01-01T07:16:38;18.50;72.30
11426;DHT22;5769;47.998;7.788;2023-01-01T07:19:05;18.40;72.20
11426;DHT22;5769;47.998;7.788;2023-01-01T07:21:33;18.50;72.20
11426;DHT22;5769;47.998;7.788;2023-01-01T07:24:02;18.40;72.30
11426;DHT22;5769;47.998;7.788;2023-01-01T07:26:30;18.40;72.30
11426;DHT22;5769;47.998;7.788;2023-01-01T07:28:58;18.40;72.20
11426;DHT22;5769;47.998;7.788;2023-01-01T07:31:25;18.40;73.00
11426;DHT22;5769;47.998;7.788;2023-01-01T07:33:52;18.40;72.20
11426;DHT22;5769;47.998;7.788;2023-01-01T07:36:18;18.40;72.20
11426;DHT22;5769;47.998;7.788;2023-01-01T07:38:45;18.40;72.30
11426;DHT22;5769;47.998;7.788;2023-01-01T07:41:12;18.40;72.30
11426;DHT22;5769;47.998;7.788;2023-01-01T07:43:38;18.40;72.30
11426;DHT22;5769;47.998;7.788;2023-01-01T07:46:09;18.40;72.30
11426;DHT22;5769;47.998;7.788;2023-01-01T07:48:37;18.40;72.20
11426;DHT22;5769;47.998;7.788;2023-01-01T07:51:04;18.40;72.20
11426;DHT22;5769;47.998;7.788;2023-01-01T07:53:31;18.40;72.20
11426;DHT22;5769;47.998;7.788;2023-01-01T07:55:57;18.40;72.20
11426;DHT22;5769;47.998;7.788;2023-01-01T07:58:24;18.40;72.10
11426;DHT22;5769;47.998;7.788;2023-01-01T08:00:51;18.40;72.30
11426;DHT22;5769;47.998;7.788;2023-01-01T08:03:19;18.40;72.20
11426;DHT22;5769;47.998;7.788;2023-01-01T08:05:45;18.40;72.10
11426;DHT22;5769;47.998;7.788;2023-01-01T08:08:12;18.40;72.10
11426;DHT22;5769;47.998;7.788;2023-01-01T08:10:39;18.40;72.20
11426;DHT22;5769;47.998;7.788;2023-01-01T08:13:07;18.40;72.30
11426;DHT22;5769;47.998;7.788;2023-01-01T08:15:34;18.40;72.30
11426;DHT22;5769;47.998;7.788;2023-01-01T08:18:03;18.40;72.30
11426;DHT22;5769;47.998;7.788;2023-01-01T08:20:32;18.40;72.30
11426;DHT22;5769;47.998;7.788;2023-01-01T08:22:59;18.40;72.30
11426;DHT22;5769;47.998;7.788;2023-01-01T08:25:25;18.40;72.20
11426;DHT22;5769;47.998;7.788;2023-01-01T08:27:52;18.40;72.30
11426;DHT22;5769;47.998;7.788;2023-01-01T08:30:19;18.40;72.40
11426;DHT22;5769;47.998;7.788;2023-01-01T08:32:45;18.40;72.20
11426;DHT22;5769;47.998;7.788;2023-01-01T08:35:12;18.40;72.30
11426;DHT22;5769;47.998;7.788;2023-01-01T08:37:40;18.40;72.20
11426;DHT22;5769;47.998;7.788;2023-01-01T08:40:09;18.40;72.30
11426;DHT22;5769;47.998;7.788;2023-01-01T08:42:37;18.40;72.20
11426;DHT22;5769;47.998;7.788;2023-01-01T08:45:04;18.40;72.20
11426;DHT22;5769;47.998;7.788;2023-01-01T08:47:31;18.50;72.30
11426;DHT22;5769;47.998;7.788;2023-01-01T08:49:58;18.40;72.30
11426;DHT22;5769;47.998;7.788;2023-01-01T08:52:24;18.40;72.30
11426;DHT22;5769;47.998;7.788;2023-01-01T08:54:52;18.40;72.30
11426;DHT22;5769;47.998;7.788;2023-01-01T08:57:19;18.40;72.30
11426;DHT22;5769;47.998;7.788;2023-01-01T08:59:45;18.40;72.20
11426;DHT22;5769;47.998;7.788;2023-01-01T09:02:12;18.40;72.30
11426;DHT22;5769;47.998;7.788;2023-01-01T09:04:39;18.40;72.20
11426;DHT22;5769;47.998;7.788;2023-01-01T09:07:05;18.40;72.20
11426;DHT22;5769;47.998;7.788;2023-01-01T09:09:32;18.40;72.20
11426;DHT22;5769;47.998;7.788;2023-01-01T09:12:00;18.40;72.20
11426;DHT22;5769;47.998;7.788;2023-01-01T09:14:30;18.50;72.30
11426;DHT22;5769;47.998;7.788;2023-01-01T09:16:57;18.40;72.20
11426;DHT22;5769;47.998;7.788;2023-01-01T09:19:24;18.40;72.20
11426;DHT22;5769;47.998;7.788;2023-01-01T09:21:51;18.40;72.20
11426;DHT22;5769;47.998;7.788;2023-01-01T09:24:18;18.40;72.10
11426;DHT22;5769;47.998;7.788;2023-01-01T09:26:44;18.40;72.20
11426;DHT22;5769;47.998;7.788;2023-01-01T09:29:12;18.40;72.10
11426;DHT22;5769;47.998;7.788;2023-01-01T09:31:42;18.40;72.10
11426;DHT22;5769;47.998;7.788;2023-01-01T09:34:09;18.40;72.10
11426;DHT22;5769;47.998;7.788;2023-01-01T09:36:36;18.40;72.20
11426;DHT22;5769;47.998;7.788;2023-01-01T09:39:03;18.40;72.20
11426;DHT22;5769;47.998;7.788;2023-01-01T09:41:45;18.40;72.20
11426;DHT22;5769;47.998;7.788;2023-01-01T09:44:52;18.40;72.90
11426;DHT22;5769;47.998;7.788;2023-01-01T09:47:25;18.40;72.20
11426;DHT22;5769;47.998;7.788;2023-01-01T09:49:55;18.40;72.30
11426;DHT22;5769;47.998;7.788;2023-01-01T09:52:23;18.40;72.80
11426;DHT22;5769;47.998;7.788;2023-01-01T09:54:56;18.40;72.20
11426;DHT22;5769;47.998;7.788;2023-01-01T09:57:28;18.40;72.30
11426;DHT22;5769;47.998;7.788;2023-01-01T09:59:57;18.40;72.20
11426;DHT22;5769;47.998;7.788;2023-01-01T10:02:36;18.40;72.30
11426;DHT22;5769;47.998;7.788;2023-01-01T10:05:14;18.40;72.20
11426;DHT22;5769;47.998;7.788;2023-01-01T10:07:49;18.40;72.30
11426;DHT22;5769;47.998;7.788;2023-01-01T10:10:27;18.40;72.30
11426;DHT22;5769;47.998;7.788;2023-01-01T10:13:02;18.40;72.40
11426;DHT22;5769;47.998;7.788;2023-01-01T10:15:33;18.40;72.20
11426;DHT22;5769;47.998;7.788;2023-01-01T10:18:03;18.40;72.30
11426;DHT22;5769;47.998;7.788;2023-01-01T10:20:36;18.40;72.20
11426;DHT22;5769;47.998;7.788;2023-01-01T10:23:23;18.40;72.20
11426;DHT22;5769;47.998;7.788;2023-01-01T10:25:50;18.40;72.20
11426;DHT22;5769;47.998;7.788;2023-01-01T10:28:21;18.40;72.30
11426;DHT22;5769;47.998;7.788;2023-01-01T10:30:50;18.40;72.20
11426;DHT22;5769;47.998;7.788;2023-01-01T10:33:18;18.40;72.20
11426;DHT22;5769;47.998;7.788;2023-01-01T10:35:47;18.40;72.40
11426;DHT22;5769;47.998;7.788;2023-01-01T10:38:21;18.40;72.30
11426;DHT22;5769;47.998;7.788;2023-01-01T10:40:49;18.40;72.30
11426;DHT22;5769;47.998;7.788;2023-01-01T10:43:16;18.40;72.30
11426;DHT22;5769;47.998;7.788;2023-01-01T10:45:44;18.40;72.20
11426;DHT22;5769;47.998;7.788;2023-01-01T10:48:16;18.40;72.30
11426;DHT22;5769;47.998;7.788;2023-01-01T10:50:48;18.40;72.40
11426;DHT22;5769;47.998;7.788;2023-01-01T10:53:34;18.40;72.30
11426;DHT22;5769;47.998;7.788;2023-01-01T10:56:05;18.40;72.20
11426;DHT22;5769;47.998;7.788;2023-01-01T10:58:40;18.40;72.20
11426;DHT22;5769;47.998;7.788;2023-01-01T11:01:09;18.40;72.20
11426;DHT22;5769;47.998;7.788;2023-01-01T11:03:51;18.40;72.20
11426;DHT22;5769;47.998;7.788;2023-01-01T11:06:20;18.40;72.20
11426;DHT22;5769;47.998;7.788;2023-01-01T11:08:49;18.40;72.20
11426;DHT22;5769;47.998;7.788;2023-01-01T11:11:20;18.40;72.20
11426;DHT22;5769;47.998;7.788;2023-01-01T11:13:49;18.40;72.30
11426;DHT22;5769;47.998;7.788;2023-01-01T11:16:16;18.40;72.20
11426;DHT22;5769;47.998;7.788;2023-01-01T11:18:44;18.40;72.30
11426;DHT22;5769;47.998;7.788;2023-01-01T11:21:18;18.40;72.40
11426;DHT22;5769;47.998;7.788;2023-01-01T11:23:46;18.40;72.30
11426;DHT22;5769;47.998;7.788;2023-01-01T11:26:20;18.40;72.20
11426;DHT22;5769;47.998;7.788;2023-01-01T11:28:58;18.40;72.40
11426;DHT22;5769;47.998;7.788;2023-01-01T11:31:27;18.40;72.30
11426;DHT22;5769;47.998;7.788;2023-01-01T11:33:57;18.40;72.40
11426;DHT22;5769;47.998;7.788;2023-01-01T11:36:25;18.40;72.40
11426;DHT22;5769;47.998;7.788;2023-01-01T11:39:05;18.40;72.50
11426;DHT22;5769;47.998;7.788;2023-01-01T11:41:41;18.40;72.40
11426;DHT22;5769;47.998;7.788;2023-01-01T11:44:10;18.40;72.30
11426;DHT22;5769;47.998;7.788;2023-01-01T11:46:39;18.40;72.10
11426;DHT22;5769;47.998;7.788;2023-01-01T11:49:13;18.40;72.40
11426;DHT22;5769;47.998;7.788;2023-01-01T11:51:40;18.40;72.40
11426;DHT22;5769;47.998;7.788;2023-01-01T11:54:10;18.40;72.40
11426;DHT22;5769;47.998;7.788;2023-01-01T11:56:38;18.40;72.30
11426;DHT22;5769;47.998;7.788;2023-01-01T11:59:11;18.40;72.40
11426;DHT22;5769;47.998;7.788;2023-01-01T12:01:43;18.40;72.20
11426;DHT22;5769;47.998;7.788;2023-01-01T12:04:18;18.40;72.40
11426;DHT22;5769;47.998;7.788;2023-01-01T12:06:51;18.40;72.30
11426;DHT22;5769;47.998;7.788;2023-01-01T12:09:23;18.40;72.40
11426;DHT22;5769;47.998;7.788;2023-01-01T12:11:58;18.40;72.20
11426;DHT22;5769;47.998;7.788;2023-01-01T12:14:34;18.40;72.40
11426;DHT22;5769;47.998;7.788;2023-01-01T12:17:06;18.40;72.30
11426;DHT22;5769;47.998;7.788;2023-01-01T12:19:41;18.40;72.20
11426;DHT22;5769;47.998;7.788;2023-01-01T12:22:14;18.40;72.40
11426;DHT22;5769;47.998;7.788;2023-01-01T12:24:41;18.40;72.30
11426;DHT22;5769;47.998;7.788;2023-01-01T12:27:16;18.40;72.40
11426;DHT22;5769;47.998;7.788;2023-01-01T12:30:03;18.40;72.40
11426;DHT22;5769;47.998;7.788;2023-01-01T12:32:41;18.40;72.30
11426;DHT22;5769;47.998;7.788;2023-01-01T12:35:20;18.40;72.30
11426;DHT22;5769;47.998;7.788;2023-01-01T12:37:56;18.40;72.40
11426;DHT22;5769;47.998;7.788;2023-01-01T12:40:37;18.40;72.40
11426;DHT22;5769;47.998;7.788;2023-01-01T12:43:07;18.40;72.40
11426;DHT22;5769;47.998;7.788;2023-01-01T12:45:50;18.40;72.40
11426;DHT22;5769;47.998;7.788;2023-01-01T12:48:41;18.40;72.40
11426;DHT22;5769;47.998;7.788;2023-01-01T12:51:22;18.40;72.40
11426;DHT22;5769;47.998;7.788;2023-01-01T12:54:03;18.40;72.40
11426;DHT22;5769;47.998;7.788;2023-01-01T12:56:34;18.40;72.40
11426;DHT22;5769;47.998;7.788;2023-01-01T12:59:09;18.40;72.30
11426;DHT22;5769;47.998;7.788;2023-01-01T13:01:39;18.40;72.40
11426;DHT22;5769;47.998;7.788;2023-01-01T13:04:10;18.40;72.50
11426;DHT22;5769;47.998;7.788;2023-01-01T13:06:41;18.40;72.40
11426;DHT22;5769;47.998;7.788;2023-01-01T13:09:13;18.40;72.40
11426;DHT22;5769;47.998;7.788;2023-01-01T13:11:42;18.40;72.50
11426;DHT22;5769;47.998;7.788;2023-01-01T13:14:09;18.40;72.50
11426;DHT22;5769;47.998;7.788;2023-01-01T13:16:37;18.40;72.40
11426;DHT22;5769;47.998;7.788;2023-01-01T13:19:10;18.40;72.70
11426;DHT22;5769;47.998;7.788;2023-01-01T13:21:49;18.40;72.70
11426;DHT22;5769;47.998;7.788;2023-01-01T13:24:20;18.40;72.60
11426;DHT22;5769;47.998;7.788;2023-01-01T13:26:47;18.40;72.40
11426;DHT22;5769;47.998;7.788;2023-01-01T13:29:43;18.40;72.50
11426;DHT22;5769;47.998;7.788;2023-01-01T13:32:11;18.40;72.50
11426;DHT22;5769;47.998;7.788;2023-01-01T13:34:57;18.40;72.60
11426;DHT22;5769;47.998;7.788;2023-01-01T13:37:27;18.40;72.60
11426;DHT22;5769;47.998;7.788;2023-01-01T13:39:56;18.40;72.50
11426;DHT22;5769;47.998;7.788;2023-01-01T13:42:41;18.40;72.60
11426;DHT22;5769;47.998;7.788;2023-01-01T13:45:14;18.40;72.50
11426;DHT22;5769;47.998;7.788;2023-01-01T13:48:02;18.40;72.50
11426;DHT22;5769;47.998;7.788;2023-01-01T13:50:39;18.40;72.70
11426;DHT22;5769;47.998;7.788;2023-01-01T13:53:31;18.40;72.50
11426;DHT22;5769;47.998;7.788;2023-01-01T13:56:12;18.40;72.60
11426;DHT22;5769;47.998;7.788;2023-01-01T13:59:12;18.40;72.50
11426;DHT22;5769;47.998;7.788;2023-01-01T14:01:49;18.40;72.40
11426;DHT22;5769;47.998;7.788;2023-01-01T14:04:28;18.40;72.70
11426;DHT22;5769;47.998;7.788;2023-01-01T14:06:57;18.40;72.60
11426;DHT22;5769;47.998;7.788;2023-01-01T14:09:25;18.40;72.50
11426;DHT22;5769;47.998;7.788;2023-01-01T14:11:52;18.40;72.40
11426;DHT22;5769;47.998;7.788;2023-01-01T14:14:23;18.40;72.70
11426;DHT22;5769;47.998;7.788;2023-01-01T14:16:54;18.40;72.70
11426;DHT22;5769;47.998;7.788;2023-01-01T14:19:22;18.40;72.50
11426;DHT22;5769;47.998;7.788;2023-01-01T14:21:50;18.40;72.50
11426;DHT22;5769;47.998;7.788;2023-01-01T14:24:18;18.40;72.60
11426;DHT22;5769;47.998;7.788;2023-01-01T14:26:48;18.40;72.50
11426;DHT22;5769;47.998;7.788;2023-01-01T14:29:18;18.40;72.60
11426;DHT22;5769;47.998;7.788;2023-01-01T14:31:47;18.40;72.60
11426;DHT22;5769;47.998;7.788;2023-01-01T14:34:15;18.40;72.60
11426;DHT22;5769;47.998;7.788;2023-01-01T14:36:49;18.40;73.70
11426;DHT22;5769;47.998;7.788;2023-01-01T14:39:24;18.40;73.90
11426;DHT22;5769;47.998;7.788;2023-01-01T14:41:53;18.50;74.00
11426;DHT22;5769;47.998;7.788;2023-01-01T14:44:23;18.50;73.90
11426;DHT22;5769;47.998;7.788;2023-01-01T14:46:53;18.50;74.00
11426;DHT22;5769;47.998;7.788;2023-01-01T14:49:22;18.50;73.90
11426;DHT22;5769;47.998;7.788;2023-01-01T14:51:54;18.50;74.00
11426;DHT22;5769;47.998;7.788;2023-01-01T14:54:28;18.50;73.90
11426;DHT22;5769;47.998;7.788;2023-01-01T14:56:58;18.50;74.10
11426;DHT22;5769;47.998;7.788;2023-01-01T14:59:45;18.50;73.80
11426;DHT22;5769;47.998;7.788;2023-01-01T15:02:26;18.50;74.00
11426;DHT22;5769;47.998;7.788;2023-01-01T15:05:14;18.50;73.90
11426;DHT22;5769;47.998;7.788;2023-01-01T15:07:55;18.50;73.90
11426;DHT22;5769;47.998;7.788;2023-01-01T15:10:36;18.50;74.00
11426;DHT22;5769;47.998;7.788;2023-01-01T15:13:19;18.50;74.20
11426;DHT22;5769;47.998;7.788;2023-01-01T15:15:55;18.50;74.00
11426;DHT22;5769;47.998;7.788;2023-01-01T15:18:36;18.50;74.10
11426;DHT22;5769;47.998;7.788;2023-01-01T15:21:13;18.50;74.20
11426;DHT22;5769;47.998;7.788;2023-01-01T15:23:58;18.50;74.30
11426;DHT22;5769;47.998;7.788;2023-01-01T15:26:28;18.50;74.20
11426;DHT22;5769;47.998;7.788;2023-01-01T15:29:01;18.50;74.30
11426;DHT22;5769;47.998;7.788;2023-01-01T15:31:59;18.50;74.30
11426;DHT22;5769;47.998;7.788;2023-01-01T15:34:36;18.50;74.40
11426;DHT22;5769;47.998;7.788;2023-01-01T15:37:28;18.50;74.40
11426;DHT22;5769;47.998;7.788;2023-01-01T15:43:17;18.50;74.40
11426;DHT22;5769;47.998;7.788;2023-01-01T15:45:59;18.50;74.50
11426;DHT22;5769;47.998;7.788;2023-01-01T15:48:46;18.50;74.30
11426;DHT22;5769;47.998;7.788;2023-01-01T15:51:31;18.50;74.40
11426;DHT22;5769;47.998;7.788;2023-01-01T15:54:00;18.50;74.50
11426;DHT22;5769;47.998;7.788;2023-01-01T15:56:37;18.50;74.50
11426;DHT22;5769;47.998;7.788;2023-01-01T15:59:26;18.50;74.40
11426;DHT22;5769;47.998;7.788;2023-01-01T16:02:18;18.50;74.50
11426;DHT22;5769;47.998;7.788;2023-01-01T16:04:47;18.50;74.40
11426;DHT22;5769;47.998;7.788;2023-01-01T16:07:31;18.50;74.50
11426;DHT22;5769;47.998;7.788;2023-01-01T16:10:16;18.50;74.40
11426;DHT22;5769;47.998;7.788;2023-01-01T16:12:48;18.50;74.50